createdAt,value
2022-09-28T00:02:13.725Z,99.90
2022-09-28T00:04:40.553Z,99.90
2022-09-28T00:07:07.286Z,99.90
2022-09-28T00:09:34.079Z,99.90
2022-09-28T00:12:01.237Z,99.90
2022-09-28T00:14:28.334Z,99.90
2022-09-28T00:16:55.064Z,99.90
2022-09-28T00:19:21.793Z,99.90
2022-09-28T00:21:48.571Z,99.90
2022-09-28T00:24:15.954Z,99.90
2022-09-28T00:26:43.873Z,99.90
2022-09-28T00:29:16.467Z,99.90
2022-09-28T00:31:43.458Z,99.90
2022-09-28T00:34:10.332Z,99.90
2022-09-28T00:36:37.123Z,99.90
2022-09-28T00:39:07.085Z,99.90
2022-09-28T00:41:34.016Z,99.90
2022-09-28T00:44:19.407Z,99.90
2022-09-28T00:46:46.174Z,99.90
2022-09-28T00:49:14.541Z,99.90
2022-09-28T00:51:41.369Z,99.90
2022-09-28T00:54:08.087Z,99.90
2022-09-28T00:56:35.304Z,99.90
2022-09-28T00:59:02.246Z,99.90
2022-09-28T01:01:29.040Z,99.90
2022-09-28T01:03:55.775Z,99.90
2022-09-28T01:06:23.218Z,99.90
2022-09-28T01:08:51.303Z,99.90
2022-09-28T01:11:18.632Z,99.90
2022-09-28T01:13:45.869Z,99.90
2022-09-28T01:16:24.769Z,99.90
2022-09-28T01:19:10.291Z,99.90
2022-09-28T01:21:38.573Z,99.90
2022-09-28T01:24:05.299Z,99.90
2022-09-28T01:26:32.017Z,99.90
2022-09-28T01:29:06.422Z,99.90
2022-09-28T01:31:33.206Z,99.90
2022-09-28T01:34:04.988Z,99.90
2022-09-28T01:36:34.867Z,99.90
2022-09-28T01:39:03.381Z,99.90
2022-09-28T01:41:30.269Z,99.90
2022-09-28T01:43:57.581Z,99.90
2022-09-28T01:46:28.080Z,99.90
2022-09-28T01:48:56.456Z,99.90
2022-09-28T01:51:34.226Z,99.90
2022-09-28T01:54:01.875Z,99.90
2022-09-28T01:56:29.911Z,99.90
2022-09-28T01:59:00.777Z,99.90
2022-09-28T02:01:29.730Z,99.90
2022-09-28T02:04:04.628Z,99.90
2022-09-28T02:06:33.303Z,99.90
2022-09-28T02:09:02.096Z,99.90
2022-09-28T02:11:28.842Z,99.90
2022-09-28T02:13:58.564Z,99.90
2022-09-28T02:16:39.413Z,99.90
2022-09-28T02:19:06.355Z,99.90
2022-09-28T02:21:38.297Z,99.90
2022-09-28T02:24:10.227Z,99.90
2022-09-28T02:26:38.996Z,99.90
2022-09-28T02:29:05.753Z,99.90
2022-09-28T02:31:32.539Z,99.90
2022-09-28T02:33:59.453Z,99.90
2022-09-28T02:36:26.767Z,99.90
2022-09-28T02:38:53.656Z,99.90
2022-09-28T02:41:23.567Z,99.90
2022-09-28T02:43:53.971Z,99.90
2022-09-28T02:46:34.623Z,99.90
2022-09-28T02:49:20.962Z,99.90
2022-09-28T02:51:51.423Z,99.90
2022-09-28T02:54:33.154Z,99.90
2022-09-28T02:57:05.802Z,99.90
2022-09-28T02:59:32.550Z,99.90
2022-09-28T03:02:02.340Z,99.90
2022-09-28T03:04:29.384Z,99.90
2022-09-28T03:06:58.986Z,99.90
2022-09-28T03:09:33.513Z,99.90
2022-09-28T03:12:01.149Z,99.90
2022-09-28T03:14:27.910Z,99.90
2022-09-28T03:16:54.672Z,99.90
2022-09-28T03:19:22.735Z,99.90
2022-09-28T03:21:49.936Z,99.90
2022-09-28T03:24:16.648Z,99.90
2022-09-28T03:26:43.402Z,99.90
2022-09-28T03:29:10.187Z,99.90
2022-09-28T03:31:37.001Z,99.90
2022-09-28T03:34:03.983Z,99.90
2022-09-28T03:36:30.744Z,99.90
2022-09-28T03:38:57.817Z,99.90
2022-09-28T03:41:24.650Z,99.90
2022-09-28T03:43:51.692Z,99.90
2022-09-28T03:46:18.511Z,99.90
2022-09-28T03:48:45.271Z,99.90
2022-09-28T03:51:12.289Z,99.90
2022-09-28T03:53:39.143Z,99.90
2022-09-28T03:56:06.799Z,99.90
2022-09-28T03:58:33.627Z,99.90
2022-09-28T04:01:04.528Z,99.90
2022-09-28T04:03:31.563Z,99.90
2022-09-28T04:05:58.382Z,99.90
2022-09-28T04:08:25.227Z,99.90
2022-09-28T04:10:52.006Z,99.90
2022-09-28T04:13:18.819Z,99.90
2022-09-28T04:15:51.914Z,99.90
2022-09-28T04:18:18.628Z,99.90
2022-09-28T04:20:48.064Z,99.90
2022-09-28T04:23:17.784Z,99.90
2022-09-28T04:25:47.921Z,99.90
2022-09-28T04:28:33.002Z,99.90
2022-09-28T04:30:59.734Z,99.90
2022-09-28T04:33:26.487Z,99.90
2022-09-28T04:35:53.261Z,99.90
2022-09-28T04:38:35.651Z,99.90
2022-09-28T04:41:07.031Z,99.90
2022-09-28T04:43:33.793Z,99.90
2022-09-28T04:46:03.419Z,99.90
2022-09-28T04:48:30.170Z,99.90
2022-09-28T04:50:57.091Z,99.90
2022-09-28T04:53:24.013Z,99.90
2022-09-28T04:56:00.478Z,99.90
2022-09-28T04:58:27.370Z,99.90
2022-09-28T05:00:54.768Z,99.90
2022-09-28T05:03:21.672Z,99.90
2022-09-28T05:05:49.086Z,99.90
2022-09-28T05:08:16.295Z,99.90
2022-09-28T05:10:43.252Z,99.90
2022-09-28T05:13:10.378Z,99.90
2022-09-28T05:15:37.449Z,99.90
2022-09-28T05:18:04.435Z,99.90
2022-09-28T05:20:31.212Z,99.90
2022-09-28T05:22:57.995Z,99.90
2022-09-28T05:25:24.749Z,99.90
2022-09-28T05:27:55.855Z,99.90
2022-09-28T05:30:22.936Z,99.90
2022-09-28T05:32:51.135Z,99.90
2022-09-28T05:35:17.941Z,99.90
2022-09-28T05:37:44.723Z,99.90
2022-09-28T05:40:11.472Z,99.90
2022-09-28T05:42:38.242Z,99.90
2022-09-28T05:45:05.251Z,93.60
2022-09-28T05:47:32.202Z,89.20
2022-09-28T05:49:58.925Z,77.80
2022-09-28T05:52:25.669Z,69.70
2022-09-28T05:54:52.416Z,66.80
2022-09-28T05:57:19.159Z,64.80
2022-09-28T05:59:46.045Z,64.20
2022-09-28T06:02:12.858Z,64.60
2022-09-28T06:04:39.613Z,64.50
2022-09-28T06:07:06.381Z,66.00
2022-09-28T06:09:33.156Z,68.10
2022-09-28T06:11:59.990Z,70.00
2022-09-28T06:14:26.745Z,72.80
2022-09-28T06:16:53.557Z,75.50
2022-09-28T06:19:20.369Z,72.90
2022-09-28T06:21:47.473Z,72.20
2022-09-28T06:24:14.346Z,73.40
2022-09-28T06:26:41.178Z,73.20
2022-09-28T06:29:07.970Z,74.70
2022-09-28T06:31:34.746Z,77.00
2022-09-28T06:34:01.897Z,78.60
2022-09-28T06:36:29.375Z,78.70
2022-09-28T06:38:56.120Z,78.40
2022-09-28T06:41:23.034Z,78.10
2022-09-28T06:43:49.768Z,79.20
2022-09-28T06:46:16.564Z,78.40
2022-09-28T06:48:44.375Z,78.90
2022-09-28T06:51:11.147Z,78.40
2022-09-28T06:53:37.977Z,78.10
2022-09-28T06:56:06.174Z,77.30
2022-09-28T06:58:32.939Z,78.10
2022-09-28T07:01:00.094Z,74.10
2022-09-28T07:03:27.104Z,70.70
2022-09-28T07:05:54.203Z,64.10
2022-09-28T07:08:21.528Z,60.50
2022-09-28T07:10:48.955Z,55.30
2022-09-28T07:13:39.601Z,52.80
2022-09-28T07:16:02.878Z,51.00
2022-09-28T07:18:30.007Z,51.40
2022-09-28T07:20:59.864Z,52.30
2022-09-28T07:23:34.656Z,49.80
2022-09-28T07:26:06.946Z,48.00
2022-09-28T07:28:35.149Z,48.10
2022-09-28T07:31:03.432Z,47.70
2022-09-28T07:33:32.952Z,46.60
2022-09-28T07:36:02.835Z,47.00
2022-09-28T07:38:29.636Z,47.40
2022-09-28T07:41:14.912Z,46.40
2022-09-28T07:43:41.701Z,45.60
2022-09-28T07:46:12.154Z,45.80
2022-09-28T07:48:42.373Z,44.90
2022-09-28T07:51:09.417Z,44.90
2022-09-28T07:53:38.286Z,46.30
2022-09-28T07:56:09.075Z,46.40
2022-09-28T07:58:36.230Z,46.90
2022-09-28T08:01:04.101Z,45.70
2022-09-28T08:03:30.869Z,46.70
2022-09-28T08:06:12.684Z,46.10
2022-09-28T08:08:43.926Z,45.20
2022-09-28T08:11:11.572Z,42.90
2022-09-28T08:13:38.322Z,42.60
2022-09-28T08:16:05.958Z,42.30
2022-09-28T08:18:32.685Z,41.30
2022-09-28T08:21:18.092Z,41.30
2022-09-28T08:23:44.846Z,41.90
2022-09-28T08:26:15.413Z,42.30
2022-09-28T08:28:43.394Z,43.40
2022-09-28T08:31:10.216Z,43.00
2022-09-28T08:33:37.076Z,43.30
2022-09-28T08:36:04.561Z,44.50
2022-09-28T08:38:31.391Z,46.40
2022-09-28T08:41:10.045Z,46.60
2022-09-28T08:43:55.679Z,45.60
2022-09-28T08:46:25.174Z,43.90
2022-09-28T08:49:20.524Z,44.10
2022-09-28T08:51:44.497Z,42.70
2022-09-28T08:54:29.412Z,43.40
2022-09-28T08:57:06.713Z,42.00
2022-09-28T08:59:59.940Z,42.80
2022-09-28T09:02:33.571Z,42.60
2022-09-28T09:05:00.870Z,41.90
2022-09-28T09:07:27.611Z,41.00
2022-09-28T09:09:57.297Z,41.30
2022-09-28T09:12:24.021Z,40.90
2022-09-28T09:14:50.774Z,39.50
2022-09-28T09:17:35.938Z,39.30
2022-09-28T09:20:11.643Z,39.60
2022-09-28T09:22:42.206Z,40.90
2022-09-28T09:25:10.510Z,41.10
2022-09-28T09:27:47.586Z,40.60
2022-09-28T09:30:20.215Z,41.00
2022-09-28T09:33:10.704Z,41.60
2022-09-28T09:35:49.361Z,41.70
2022-09-28T09:38:17.519Z,44.20
2022-09-28T09:40:53.292Z,46.00
2022-09-28T09:43:38.694Z,48.50
2022-09-28T09:46:19.567Z,50.60
2022-09-28T09:49:09.492Z,52.00
2022-09-28T09:51:46.743Z,52.60
2022-09-28T09:54:19.207Z,54.30
2022-09-28T09:56:48.931Z,55.40
2022-09-28T09:59:18.929Z,55.50
2022-09-28T10:01:45.899Z,57.40
2022-09-28T10:04:23.587Z,56.90
2022-09-28T10:06:51.388Z,56.00
2022-09-28T10:09:25.146Z,56.70
2022-09-28T10:11:52.142Z,57.50
2022-09-28T10:14:22.335Z,58.90
2022-09-28T10:16:49.729Z,59.20
2022-09-28T10:19:18.881Z,59.20
2022-09-28T10:21:46.987Z,56.20
2022-09-28T10:24:34.003Z,52.50
2022-09-28T10:27:07.692Z,51.00
2022-09-28T10:29:43.577Z,50.10
2022-09-28T10:32:17.620Z,48.00
2022-09-28T10:34:48.734Z,48.60
2022-09-28T10:37:18.041Z,47.10
2022-09-28T10:39:48.334Z,46.80
2022-09-28T10:42:22.295Z,47.70
2022-09-28T10:44:53.252Z,48.90
2022-09-28T10:47:20.271Z,50.90
2022-09-28T10:49:48.556Z,51.10
2022-09-28T10:52:34.303Z,51.30
2022-09-28T10:55:01.505Z,52.30
2022-09-28T10:57:29.291Z,53.00
2022-09-28T10:59:56.090Z,54.90
2022-09-28T11:02:26.504Z,54.80
2022-09-28T11:04:54.383Z,54.60
2022-09-28T11:07:25.374Z,56.00
2022-09-28T11:09:52.423Z,57.50
2022-09-28T11:12:26.426Z,57.10
2022-09-28T11:14:57.012Z,57.10
2022-09-28T11:17:27.912Z,58.00
2022-09-28T11:19:55.233Z,58.10
2022-09-28T11:22:23.086Z,59.10
2022-09-28T11:24:49.925Z,59.40
2022-09-28T11:27:20.611Z,59.70
2022-09-28T11:29:53.096Z,60.40
2022-09-28T11:32:19.828Z,59.50
2022-09-28T11:34:59.003Z,59.80
2022-09-28T11:37:31.387Z,60.30
2022-09-28T11:40:11.521Z,61.40
2022-09-28T11:42:44.428Z,61.40
2022-09-28T11:45:32.605Z,63.40
2022-09-28T11:48:00.824Z,62.90
2022-09-28T11:50:47.876Z,62.60
2022-09-28T11:53:25.716Z,62.40
2022-09-28T11:55:57.571Z,62.30
2022-09-28T11:58:26.371Z,62.30
2022-09-28T12:00:55.134Z,62.00
2022-09-28T12:03:23.032Z,62.00
2022-09-28T12:05:57.134Z,62.70
2022-09-28T12:08:28.649Z,62.10
2022-09-28T12:11:03.278Z,62.30
2022-09-28T12:13:31.915Z,61.90
2022-09-28T12:16:45.291Z,62.30
2022-09-28T12:18:55.281Z,62.30
2022-09-28T12:21:24.851Z,62.90
2022-09-28T12:23:55.955Z,63.40
2022-09-28T12:26:34.643Z,64.00
2022-09-28T12:29:07.195Z,64.00
2022-09-28T12:31:43.478Z,64.30
2022-09-28T12:34:10.202Z,64.40
2022-09-28T12:36:41.808Z,63.80
2022-09-28T12:39:35.527Z,64.20
2022-09-28T12:42:07.872Z,64.70
2022-09-28T12:44:55.918Z,65.50
2022-09-28T12:47:28.724Z,66.20
2022-09-28T12:50:37.996Z,67.00
2022-09-28T12:53:07.478Z,67.80
2022-09-28T12:55:54.280Z,68.40
2022-09-28T12:58:30.065Z,68.20
2022-09-28T13:00:56.863Z,67.80
2022-09-28T13:03:42.729Z,67.60
2022-09-28T13:06:24.298Z,66.40
2022-09-28T13:08:55.451Z,65.30
2022-09-28T13:11:41.331Z,65.70
2022-09-28T13:14:26.660Z,66.80
2022-09-28T13:16:56.144Z,67.50
2022-09-28T13:19:41.555Z,67.30
2022-09-28T13:22:11.037Z,68.00
2022-09-28T13:24:38.408Z,68.70
2022-09-28T13:27:06.750Z,68.80
2022-09-28T13:29:35.088Z,70.00
2022-09-28T13:32:02.383Z,70.00
2022-09-28T13:34:29.543Z,71.10
2022-09-28T13:37:17.635Z,71.10
2022-09-28T13:39:44.406Z,71.10
2022-09-28T13:42:26.295Z,71.10
2022-09-28T13:44:59.577Z,70.80
2022-09-28T13:47:32.566Z,70.60
2022-09-28T13:50:02.047Z,71.30
2022-09-28T13:52:44.887Z,70.80
2022-09-28T13:55:18.986Z,71.30
2022-09-28T13:57:48.850Z,71.10
2022-09-28T14:00:15.923Z,71.40
2022-09-28T14:02:46.885Z,70.20
2022-09-28T14:05:22.809Z,70.70
2022-09-28T14:08:08.238Z,70.30
2022-09-28T14:10:51.941Z,70.90
2022-09-28T14:13:36.903Z,70.50
2022-09-28T14:16:18.731Z,70.80
2022-09-28T14:19:07.113Z,71.50
2022-09-28T14:21:52.579Z,71.10
2022-09-28T14:24:26.681Z,71.70
2022-09-28T14:26:53.795Z,72.10
2022-09-28T14:29:27.512Z,72.00
2022-09-28T14:31:58.357Z,71.80
2022-09-28T14:34:26.190Z,71.90
2022-09-28T14:37:11.639Z,73.00
2022-09-28T14:39:56.657Z,73.50
2022-09-28T14:42:24.146Z,73.90
2022-09-28T14:45:06.675Z,73.50
2022-09-28T14:47:37.499Z,73.50
2022-09-28T14:50:18.702Z,73.10
2022-09-28T14:52:46.793Z,73.40
2022-09-28T14:55:14.390Z,72.80
2022-09-28T14:57:41.274Z,73.80
2022-09-28T15:00:09.181Z,73.90
2022-09-28T15:02:36.154Z,74.00
2022-09-28T15:05:02.979Z,74.30
2022-09-28T15:07:34.315Z,74.70
2022-09-28T15:10:02.526Z,75.40
2022-09-28T15:12:29.843Z,75.90
2022-09-28T15:15:04.191Z,76.50
2022-09-28T15:17:40.429Z,77.30
2022-09-28T15:20:29.949Z,77.80
2022-09-28T15:22:57.464Z,78.30
2022-09-28T15:25:29.407Z,78.30
2022-09-28T15:28:10.857Z,78.40
2022-09-28T15:30:38.348Z,78.80
2022-09-28T15:33:23.733Z,79.70
2022-09-28T15:36:02.085Z,79.60
2022-09-28T15:38:28.844Z,79.60
2022-09-28T15:40:56.148Z,80.20
2022-09-28T15:43:29.059Z,80.80
2022-09-28T15:46:05.778Z,80.90
2022-09-28T15:48:52.016Z,81.00
2022-09-28T15:51:22.157Z,81.60
2022-09-28T15:53:58.458Z,82.10
2022-09-28T15:56:25.724Z,82.50
2022-09-28T15:59:08.397Z,83.10
2022-09-28T16:01:36.736Z,83.40
2022-09-28T16:04:29.935Z,83.90
2022-09-28T16:07:09.147Z,84.60
2022-09-28T16:09:54.951Z,85.10
2022-09-28T16:12:21.999Z,85.70
2022-09-28T16:14:49.712Z,86.90
2022-09-28T16:17:17.330Z,87.20
2022-09-28T16:19:44.498Z,87.80
2022-09-28T16:22:13.474Z,88.80
2022-09-28T16:24:40.219Z,89.40
2022-09-28T16:27:25.823Z,90.00
2022-09-28T16:30:03.898Z,90.40
2022-09-28T16:32:49.626Z,90.60
2022-09-28T16:35:18.646Z,91.20
2022-09-28T16:37:45.392Z,92.00
2022-09-28T16:40:12.267Z,92.40
2022-09-28T16:42:39.210Z,93.00
2022-09-28T16:45:06.213Z,93.80
2022-09-28T16:47:34.281Z,94.50
2022-09-28T16:50:02.390Z,95.00
2022-09-28T16:52:47.785Z,95.60
2022-09-28T16:58:04.933Z,96.80
2022-09-28T17:00:32.560Z,97.90
2022-09-28T17:02:59.359Z,98.10
2022-09-28T17:05:26.244Z,98.50
2022-09-28T17:08:02.749Z,99.40
2022-09-28T17:10:41.069Z,99.90
2022-09-28T17:13:16.823Z,99.90
2022-09-28T17:15:43.719Z,99.90
2022-09-28T17:18:12.928Z,99.90
2022-09-28T17:20:39.641Z,99.90
2022-09-28T17:23:06.383Z,99.90
2022-09-28T17:25:33.116Z,99.90
2022-09-28T17:27:59.912Z,99.90
2022-09-28T17:30:26.698Z,99.90
2022-09-28T17:32:53.455Z,99.90
2022-09-28T17:35:25.052Z,99.90
2022-09-28T17:37:52.230Z,99.90
2022-09-28T17:40:19.028Z,99.90
2022-09-28T17:42:47.084Z,99.90
2022-09-28T17:45:14.645Z,99.90
2022-09-28T17:47:41.392Z,99.90
2022-09-28T17:50:27.960Z,99.90
2022-09-28T17:52:54.751Z,99.90
2022-09-28T17:55:27.457Z,99.90
2022-09-28T17:57:54.452Z,99.90
2022-09-28T18:00:21.247Z,99.90
2022-09-28T18:02:48.691Z,99.90
2022-09-28T18:05:15.484Z,99.90
2022-09-28T18:07:47.294Z,99.90
2022-09-28T18:10:18.306Z,99.90
2022-09-28T18:12:45.315Z,99.90
2022-09-28T18:15:12.096Z,99.90
2022-09-28T18:17:38.943Z,99.90
2022-09-28T18:20:06.452Z,99.90
2022-09-28T18:22:33.182Z,99.90
2022-09-28T18:24:59.919Z,99.90
2022-09-28T18:27:27.860Z,99.90
2022-09-28T18:29:54.582Z,99.90
2022-09-28T18:32:21.329Z,99.90
2022-09-28T18:34:48.108Z,99.90
2022-09-28T18:37:14.831Z,99.90
2022-09-28T18:39:41.544Z,99.90
2022-09-28T18:42:08.335Z,99.90
2022-09-28T18:44:35.100Z,99.90
2022-09-28T18:47:04.553Z,99.90
2022-09-28T18:49:31.376Z,99.90
2022-09-28T18:51:58.110Z,99.90
2022-09-28T18:54:25.470Z,99.90
2022-09-28T18:56:56.417Z,99.90
2022-09-28T18:59:23.485Z,99.90
2022-09-28T19:01:51.173Z,99.90
2022-09-28T19:04:20.097Z,99.90
2022-09-28T19:06:51.673Z,99.90
2022-09-28T19:09:19.064Z,99.90
2022-09-28T19:11:46.047Z,99.90
2022-09-28T19:14:15.632Z,99.90
2022-09-28T19:16:43.647Z,99.90
2022-09-28T19:19:11.973Z,99.90
2022-09-28T19:21:39.151Z,99.90
2022-09-28T19:24:06.072Z,99.90
2022-09-28T19:26:33.004Z,99.90
2022-09-28T19:28:59.767Z,99.90
2022-09-28T19:31:26.631Z,99.90
2022-09-28T19:33:53.354Z,99.90
2022-09-28T19:36:22.515Z,99.90
2022-09-28T19:38:49.299Z,99.90
2022-09-28T19:41:39.433Z,99.90
2022-09-28T19:44:27.562Z,99.90
2022-09-28T19:46:55.520Z,99.90
2022-09-28T19:49:22.702Z,99.90
2022-09-28T19:54:38.244Z,99.90
2022-09-28T19:57:07.981Z,99.90
2022-09-28T19:59:35.712Z,99.90
2022-09-28T20:02:03.225Z,99.90
2022-09-28T20:04:30.081Z,99.90
2022-09-28T20:06:56.815Z,99.90
2022-09-28T20:09:23.583Z,99.90
2022-09-28T20:11:51.931Z,99.90
2022-09-28T20:14:18.795Z,99.90
2022-09-28T20:16:46.357Z,99.90
2022-09-28T20:19:13.176Z,99.90
2022-09-28T20:21:39.950Z,99.90
2022-09-28T20:24:06.737Z,99.90
2022-09-28T20:26:37.962Z,99.90
2022-09-28T20:29:05.276Z,99.90
2022-09-28T20:31:32.089Z,99.90
2022-09-28T20:33:58.900Z,99.90
2022-09-28T20:36:25.745Z,99.90
2022-09-28T20:38:53.057Z,99.90
2022-09-28T20:41:20.569Z,99.90
2022-09-28T20:43:47.385Z,99.90
2022-09-28T20:46:14.210Z,99.90
2022-09-28T20:48:41.034Z,99.90
2022-09-28T20:51:12.185Z,99.90
2022-09-28T20:53:39.383Z,99.90
2022-09-28T20:56:07.029Z,99.90
2022-09-28T20:58:34.333Z,99.90
2022-09-28T21:01:04.864Z,99.90
2022-09-28T21:03:31.674Z,99.90
2022-09-28T21:05:58.522Z,99.90
2022-09-28T21:08:25.804Z,99.90
2022-09-28T21:10:55.538Z,99.90
2022-09-28T21:13:22.307Z,99.90
2022-09-28T21:15:49.216Z,99.90
2022-09-28T21:18:16.370Z,99.90
2022-09-28T21:20:46.595Z,99.90
2022-09-28T21:23:13.840Z,99.90
2022-09-28T21:25:40.681Z,99.90
2022-09-28T21:28:07.685Z,99.90
2022-09-28T21:30:34.404Z,99.90
2022-09-28T21:33:04.210Z,99.90
2022-09-28T21:35:31.874Z,99.90
2022-09-28T21:37:58.642Z,99.90
2022-09-28T21:40:25.478Z,99.90
2022-09-28T21:42:52.417Z,99.90
2022-09-28T21:45:19.195Z,99.90
2022-09-28T21:47:52.867Z,99.90
2022-09-28T21:50:22.922Z,99.90
2022-09-28T21:52:50.380Z,99.90
2022-09-28T21:55:17.294Z,99.90
2022-09-28T21:57:47.359Z,99.90
2022-09-28T22:00:15.224Z,99.90
2022-09-28T22:02:42.352Z,99.90
2022-09-28T22:05:09.733Z,99.90
2022-09-28T22:07:36.842Z,99.90
2022-09-28T22:10:03.655Z,99.90
2022-09-28T22:12:30.399Z,99.90
2022-09-28T22:14:57.145Z,99.90
2022-09-28T22:17:23.906Z,99.90
2022-09-28T22:19:50.749Z,99.90
2022-09-28T22:22:17.652Z,99.90
2022-09-28T22:24:44.380Z,99.90
2022-09-28T22:27:11.127Z,99.90
2022-09-28T22:29:37.859Z,99.90
2022-09-28T22:32:04.664Z,99.90
2022-09-28T22:34:32.770Z,99.90
2022-09-28T22:36:59.539Z,99.90
2022-09-28T22:39:26.269Z,99.90
2022-09-28T22:41:53.000Z,99.90
2022-09-28T22:44:19.982Z,99.90
2022-09-28T22:46:46.910Z,99.90
2022-09-28T22:49:13.833Z,99.90
2022-09-28T22:51:40.736Z,99.90
2022-09-28T22:54:07.435Z,99.90
2022-09-28T22:56:34.163Z,99.90
2022-09-28T22:59:00.949Z,99.90
2022-09-28T23:01:28.523Z,99.90
2022-09-28T23:03:55.456Z,99.90
2022-09-28T23:06:22.757Z,99.90
2022-09-28T23:08:50.671Z,99.90
2022-09-28T23:11:17.439Z,99.90
2022-09-28T23:13:48.179Z,99.90
2022-09-28T23:16:15.145Z,99.90
2022-09-28T23:18:42.044Z,99.90
2022-09-28T23:21:15.772Z,99.90
2022-09-28T23:23:42.818Z,99.90
2022-09-28T23:26:19.696Z,99.90
2022-09-28T23:28:46.518Z,99.90
2022-09-28T23:31:17.215Z,99.90
2022-09-28T23:33:44.013Z,99.90
2022-09-28T23:36:10.782Z,99.90
2022-09-28T23:38:37.832Z,99.90
2022-09-28T23:41:04.784Z,99.90
2022-09-28T23:43:31.518Z,99.90
2022-09-28T23:45:58.225Z,99.90
2022-09-28T23:48:24.952Z,99.90
2022-09-28T23:50:51.722Z,99.90
2022-09-28T23:53:18.443Z,99.90
2022-09-28T23:55:45.178Z,99.90
2022-09-28T23:58:11.998Z,99.90
